Time;durP1;ratioP1;P1;durP2;ratioP2;P2;SDS_P1;SDS_P2;PMS_P1;PMS_P2;Temp;Humidity;BMP_temperature;BMP_pressure;BME280_temperature;BME280_humidity;BME280_pressure;Samples;Min_cycle;Max_cycle;Signal;HPM_P1;HPM_P2
2022/04/19 00:01:11;;;;;;;7.90;7.10;;;8.20;69.20;;;;;;2617266;54;20421;-81
2022/04/19 00:03:37;;;;;;;8.60;7.23;;;8.20;71.40;;;;;;2617512;54;20392;-82
2022/04/19 00:06:05;;;;;;;8.63;7.20;;;8.20;71.10;;;;;;2617781;39;20479;-82
2022/04/19 00:08:31;;;;;;;9.20;7.70;;;8.10;68.00;;;;;;2617415;54;20396;-81
2022/04/19 00:10:59;;;;;;;9.00;8.10;;;7.90;67.60;;;;;;2617330;54;20407;-80
2022/04/19 00:13:28;;;;;;;8.00;7.30;;;7.70;74.60;;;;;;2617517;54;20143;-83
2022/04/19 00:15:55;;;;;;;8.90;8.00;;;7.70;76.20;;;;;;2617543;47;20374;-81
2022/04/19 00:18:22;;;;;;;9.77;8.20;;;7.80;73.60;;;;;;2617450;47;20523;-80
2022/04/19 00:20:49;;;;;;;10.80;8.20;;;7.80;69.70;;;;;;2617220;54;20413;-81
2022/04/19 00:23:16;;;;;;;9.63;8.63;;;8.00;66.80;;;;;;2617202;47;20518;-81
2022/04/19 00:25:47;;;;;;;10.90;8.07;;;8.00;64.00;;;;;;2617347;54;20375;-80
2022/04/19 00:28:14;;;;;;;10.20;7.63;;;8.00;61.60;;;;;;2617412;54;20403;-80
2022/04/19 00:30:41;;;;;;;9.20;7.93;;;8.00;60.20;;;;;;2617768;54;20407;-80
2022/04/19 00:33:08;;;;;;;9.03;7.80;;;8.00;61.90;;;;;;2617209;47;20952;-81
2022/04/19 00:35:38;;;;;;;10.93;8.13;;;8.00;61.50;;;;;;2617513;54;20418;-82
2022/04/19 00:38:04;;;;;;;8.30;7.47;;;8.00;61.00;;;;;;2617133;54;20402;-80
2022/04/19 00:40:30;;;;;;;10.50;7.20;;;;;;;;;;2616580;47;20427;-83
2022/04/19 00:42:57;;;;;;;8.67;7.57;;;7.80;64.30;;;;;;2616871;47;20414;-82
2022/04/19 00:45:24;;;;;;;10.17;7.93;;;7.80;65.30;;;;;;2616819;47;20407;-80
2022/04/19 00:47:52;;;;;;;8.10;7.30;;;7.70;65.90;;;;;;2616943;47;20397;-81
2022/04/19 00:50:18;;;;;;;12.80;8.03;;;7.40;76.20;;;;;;2617081;39;20765;-81
2022/04/19 00:52:45;;;;;;;11.87;8.57;;;8.60;78.00;;;;;;2616393;47;20410;-79
2022/04/19 00:55:13;;;;;;;7.43;6.73;;;7.40;79.40;;;;;;2616971;47;20543;-80
2022/04/19 00:57:43;;;;;;;9.73;8.03;;;7.30;80.90;;;;;;2616815;47;20460;-80
2022/04/19 01:00:12;;;;;;;11.00;8.60;;;7.20;86.00;;;;;;2617724;54;20487;-81
2022/04/19 01:02:43;;;;;;;9.37;8.53;;;7.20;88.10;;;;;;2618048;47;20483;-81
2022/04/19 01:05:11;;;;;;;9.10;8.30;;;7.10;91.60;;;;;;2617890;46;20946;-82
2022/04/19 01:07:39;;;;;;;10.70;7.53;;;7.10;92.30;;;;;;2617919;47;20935;-81
2022/04/19 01:10:09;;;;;;;9.27;8.30;;;7.10;93.70;;;;;;2617707;46;20406;-81
2022/04/19 01:15:20;;;;;;;11.27;8.90;;;7.20;93.50;;;;;;2617944;47;20435;-81
2022/04/19 01:18:02;;;;;;;11.90;8.67;;;7.20;93.30;;;;;;2617764;46;20437;-82
2022/04/19 01:20:29;;;;;;;11.53;9.30;;;7.10;93.10;;;;;;2617991;54;20402;-81
2022/04/19 01:22:57;;;;;;;10.87;9.10;;;7.00;93.60;;;;;;2617979;47;20406;-80
2022/04/19 01:25:26;;;;;;;10.03;9.03;;;6.90;96.20;;;;;;2618398;39;20864;-81
2022/04/19 01:27:54;;;;;;;10.27;9.17;;;6.90;99.10;;;;;;2618579;39;20833;-81
2022/04/19 01:30:20;;;;;;;9.87;8.87;;;6.90;99.90;;;;;;2618200;46;20439;-80
2022/04/19 01:32:49;;;;;;;11.10;9.43;;;6.90;99.90;;;;;;2618141;39;20853;-80
2022/04/19 01:35:21;;;;;;;14.83;10.70;;;6.80;99.90;;;;;;2617568;47;20497;-82
2022/04/19 01:37:56;;;;;;;12.37;10.17;;;6.80;99.90;;;;;;2617599;54;20224;-80
2022/04/19 01:40:39;;;;;;;13.00;9.20;;;7.00;99.90;;;;;;2618013;46;20403;-81
2022/04/19 01:43:09;;;;;;;9.97;8.97;;;6.90;99.90;;;;;;2617708;47;20933;-81
2022/04/19 01:45:50;;;;;;;11.00;9.90;;;6.80;99.90;;;;;;2617759;47;20380;-81
2022/04/19 01:48:22;;;;;;;10.33;9.03;;;6.60;99.90;;;;;;2617784;46;20508;-80
2022/04/19 01:50:49;;;;;;;9.90;9.00;;;6.40;99.90;;;;;;2617993;39;20774;-80
2022/04/19 01:53:15;;;;;;;8.70;7.80;;;6.40;99.90;;;;;;2617645;47;20160;-80
2022/04/19 01:55:44;;;;;;;9.93;8.90;;;6.40;99.90;;;;;;2617617;47;20440;-80
2022/04/19 01:58:29;;;;;;;9.73;8.70;;;6.40;99.90;;;;;;2617390;47;20548;-81
2022/04/19 02:00:56;;;;;;;12.53;8.60;;;6.50;99.90;;;;;;2617639;54;20446;-81
2022/04/19 02:03:23;;;;;;;16.03;9.77;;;6.60;99.90;;;;;;2617640;47;20422;-81
2022/04/19 02:05:50;;;;;;;11.30;9.53;;;6.60;99.90;;;;;;2617101;54;20406;-80
2022/04/19 02:08:17;;;;;;;11.60;8.87;;;6.50;99.90;;;;;;2616783;47;20413;-81
2022/04/19 02:10:44;;;;;;;11.63;9.67;;;6.40;99.90;;;;;;2616340;39;22116;-80
2022/04/19 02:13:13;;;;;;;11.27;9.10;;;6.50;99.90;;;;;;2617263;54;20415;-80
2022/04/19 02:16:02;;;;;;;10.67;9.60;;;6.40;99.90;;;;;;2618325;39;20801;-80
2022/04/19 02:18:28;;;;;;;10.50;9.40;;;6.40;99.90;;;;;;2617396;46;20409;-82
2022/04/19 02:20:54;;;;;;;11.60;9.20;;;6.40;99.90;;;;;;2617507;47;20397;-81
2022/04/19 02:23:20;;;;;;;14.37;7.97;;;6.40;99.90;;;;;;2617527;47;20421;-82
2022/04/19 02:25:47;;;;;;;9.27;8.37;;;6.30;99.90;;;;;;2617232;54;20395;-80
2022/04/19 02:28:16;;;;;;;12.17;9.83;;;6.40;99.90;;;;;;2617488;39;20606;-80
2022/04/19 02:30:50;;;;;;;10.63;9.53;;;6.20;99.90;;;;;;2617434;39;20777;-81
2022/04/19 02:33:22;;;;;;;10.83;9.80;;;6.20;99.90;;;;;;2617408;47;20407;-81
2022/04/19 02:35:49;;;;;;;10.33;8.93;;;6.20;99.90;;;;;;2617454;46;20437;-80
2022/04/19 02:38:15;;;;;;;10.63;9.53;;;6.10;99.90;;;;;;2617169;47;20517;-81
2022/04/19 02:40:45;;;;;;;11.40;9.87;;;6.20;99.90;;;;;;2617288;54;20958;-80
2022/04/19 02:43:13;;;;;;;12.23;9.80;;;6.10;99.90;;;;;;2617162;47;20381;-80
2022/04/19 02:45:41;;;;;;;11.80;9.63;;;6.10;99.90;;;;;;2616829;47;20450;-81
2022/04/19 02:48:08;;;;;;;10.40;9.03;;;6.10;99.90;;;;;;2616382;46;21033;-81
2022/04/19 02:50:44;;;;;;;10.90;9.80;;;6.00;99.90;;;;;;2617105;47;20432;-81
2022/04/19 02:53:10;;;;;;;9.50;8.60;;;6.10;99.90;;;;;;2617742;47;20441;-81
2022/04/19 02:55:38;;;;;;;13.03;9.30;;;6.00;99.90;;;;;;2618288;54;20393;-80
2022/04/19 02:58:07;;;;;;;10.70;9.53;;;5.90;99.90;;;;;;2618285;47;20421;-80
2022/04/19 03:00:34;;;;;;;10.87;9.00;;;5.90;99.90;;;;;;2617718;47;20424;-81
2022/04/19 03:03:00;;;;;;;10.10;9.17;;;5.90;99.90;;;;;;2617612;47;20470;-81
2022/04/19 03:05:26;;;;;;;10.10;9.20;;;5.90;99.90;;;;;;2617750;54;20190;-80
2022/04/19 03:07:54;;;;;;;10.70;9.60;;;5.90;99.90;;;;;;2617564;47;20162;-80
2022/04/19 03:10:21;;;;;;;10.07;9.07;;;5.90;99.90;;;;;;2617805;51;20712;-78
2022/04/19 03:12:48;;;;;;;19.80;9.93;;;5.90;99.90;;;;;;2618363;39;20884;-80
2022/04/19 03:15:18;;;;;;;11.27;9.77;;;5.80;99.90;;;;;;2618068;47;20384;-79
2022/04/19 03:17:45;;;;;;;10.77;9.87;;;5.80;99.90;;;;;;2617590;39;20789;-80
2022/04/19 03:20:12;;;;;;;10.60;9.50;;;5.70;99.90;;;;;;2617508;46;21044;-81
2022/04/19 03:28:15;;;;;;;10.03;9.20;;;5.60;99.90;;;;;;2617556;47;20409;-79
2022/04/19 03:30:41;;;;;;;11.43;10.43;;;5.60;99.90;;;;;;2617053;46;20909;-82
2022/04/19 03:33:09;;;;;;;11.70;10.50;;;5.60;99.90;;;;;;2617977;39;20762;-78
2022/04/19 03:35:36;;;;;;;12.07;10.87;;;5.60;99.90;;;;;;2617338;46;20430;-80
2022/04/19 03:38:07;;;;;;;13.73;10.07;;;5.50;99.90;;;;;;2616723;47;20959;-79
2022/04/19 03:40:33;;;;;;;13.90;10.20;;;5.50;99.90;;;;;;2616335;54;20490;-82
2022/04/19 03:43:05;;;;;;;12.10;10.27;;;5.40;99.90;;;;;;2616249;47;20407;-80
2022/04/19 03:45:31;;;;;;;11.00;10.00;;;5.40;99.90;;;;;;2616544;47;20950;-80
2022/04/19 03:47:57;;;;;;;11.67;10.03;;;5.40;99.90;;;;;;2616888;47;20431;-79
2022/04/19 03:50:26;;;;;;;13.50;10.90;;;5.40;99.90;;;;;;2617140;47;20409;-80
2022/04/19 03:52:53;;;;;;;12.67;11.40;;;5.50;99.90;;;;;;2617341;39;20559;-83
2022/04/19 03:55:23;;;;;;;11.50;10.40;;;5.40;99.90;;;;;;2616368;47;20504;-79
2022/04/19 03:57:49;;;;;;;11.40;10.20;;;5.30;99.90;;;;;;2616561;47;20447;-80
2022/04/19 04:00:15;;;;;;;13.80;10.97;;;5.30;99.90;;;;;;2615692;47;20416;-80
2022/04/19 04:02:46;;;;;;;10.53;9.43;;;5.30;99.90;;;;;;2615559;47;20466;-80
2022/04/19 04:05:26;;;;;;;11.53;10.40;;;5.30;99.90;;;;;;2616637;47;20454;-80
2022/04/19 04:07:57;;;;;;;14.90;10.77;;;5.20;99.90;;;;;;2617330;47;20969;-80
2022/04/19 04:10:23;;;;;;;15.33;10.40;;;5.20;99.90;;;;;;2616497;47;20394;-80
2022/04/19 04:12:52;;;;;;;11.90;10.73;;;5.20;99.90;;;;;;2616793;47;20422;-79
2022/04/19 04:15:18;;;;;;;11.40;10.33;;;5.20;99.90;;;;;;2616652;47;21109;-81
2022/04/19 04:17:44;;;;;;;11.17;10.17;;;5.20;99.90;;;;;;2616788;47;20514;-79
2022/04/19 04:20:12;;;;;;;12.30;9.40;;;5.30;99.90;;;;;;2616708;47;20168;-81
2022/04/19 04:22:38;;;;;;;11.13;10.00;;;5.30;99.90;;;;;;2616557;47;20244;-81
2022/04/19 04:25:04;;;;;;;11.57;10.37;;;5.30;99.90;;;;;;2615988;47;20413;-81
2022/04/19 04:27:31;;;;;;;13.37;11.33;;;5.10;99.90;;;;;;2616613;54;20448;-80
2022/04/19 04:29:59;;;;;;;13.43;10.13;;;5.10;99.90;;;;;;2615422;47;20428;-81
2022/04/19 04:32:26;;;;;;;13.07;10.37;;;5.20;99.90;;;;;;2615217;54;20452;-79
2022/04/19 04:34:52;;;;;;;13.07;10.10;;;5.20;99.90;;;;;;2615649;47;20413;-82
2022/04/19 04:37:20;;;;;;;13.83;11.27;;;5.20;99.90;;;;;;2616553;39;20787;-81
2022/04/19 04:39:52;;;;;;;12.13;10.50;;;5.20;99.90;;;;;;2616124;47;20188;-80
2022/04/19 04:42:24;;;;;;;11.47;10.30;;;5.20;99.90;;;;;;2616827;54;20515;-81
2022/04/19 04:44:50;;;;;;;10.77;9.67;;;5.20;99.90;;;;;;2616872;46;20426;-80
2022/04/19 04:50:01;;;;;;;11.87;10.67;;;5.20;99.90;;;;;;2616156;47;20176;-81
2022/04/19 04:52:28;;;;;;;12.40;11.20;;;5.20;99.90;;;;;;2615939;47;20431;-79
2022/04/19 04:54:55;;;;;;;12.17;10.77;;;5.20;99.90;;;;;;2616071;54;20450;-80
2022/04/19 04:57:25;;;;;;;13.27;11.40;;;5.20;99.90;;;;;;2616516;47;20393;-79
2022/04/19 04:59:52;;;;;;;12.87;11.43;;;5.30;99.90;;;;;;2615653;47;20425;-79
2022/04/19 05:02:23;;;;;;;11.83;10.63;;;5.40;99.90;;;;;;2617748;31;20624;-80
2022/04/19 05:04:49;;;;;;;11.53;10.20;;;5.40;99.90;;;;;;2616521;47;21197;-80
2022/04/19 05:07:17;;;;;;;18.60;12.00;;;5.50;99.90;;;;;;2616686;54;20410;-81
2022/04/19 05:09:49;;;;;;;15.17;10.93;;;5.40;99.90;;;;;;2615784;47;20444;-79
2022/04/19 05:12:15;;;;;;;11.40;10.17;;;5.40;99.90;;;;;;2615619;47;20412;-80
2022/04/19 05:14:42;;;;;;;13.93;10.50;;;5.50;99.90;;;;;;2615730;47;20425;-82
2022/04/19 05:17:08;;;;;;;14.77;11.97;;;5.70;99.90;;;;;;2615950;54;20418;-80
2022/04/19 05:19:39;;;;;;;15.70;12.23;;;5.70;99.90;;;;;;2615930;47;20409;-82
2022/04/19 05:22:06;;;;;;;13.93;11.77;;;5.70;99.90;;;;;;2617764;31;20907;-81
2022/04/19 05:24:32;;;;;;;14.00;12.60;;;5.90;99.90;;;;;;2615949;54;20438;-80
2022/04/19 05:26:59;;;;;;;13.50;12.10;;;6.40;99.90;;;;;;2617346;39;20781;-81
2022/04/19 05:29:25;;;;;;;13.63;11.70;;;6.90;99.90;;;;;;2614670;47;20422;-79
2022/04/19 05:31:51;;;;;;;12.23;10.77;;;7.40;99.90;;;;;;2615060;47;20439;-79
2022/04/19 05:34:18;;;;;;;16.57;10.50;;;8.00;99.90;;;;;;2615891;47;20454;-81
2022/04/19 05:36:43;;;;;;;12.43;10.70;;;8.50;99.90;;;;;;2615882;54;20490;-81
2022/04/19 05:39:11;;;;;;;13.23;10.50;;;9.10;99.90;;;;;;2616538;47;20662;-80
2022/04/19 05:41:40;;;;;;;13.00;11.67;;;9.60;91.50;;;;;;2615104;47;20418;-81
2022/04/19 05:44:08;;;;;;;15.50;11.57;;;10.30;75.10;;;;;;2615406;54;20410;-81
2022/04/19 05:46:36;;;;;;;17.43;12.97;;;10.80;64.30;;;;;;2617313;39;20808;-80
2022/04/19 05:49:04;;;;;;;15.50;13.80;;;11.30;53.20;;;;;;2615649;47;20495;-81
2022/04/19 05:51:32;;;;;;;13.90;12.53;;;11.70;43.50;;;;;;2615263;46;20487;-81
2022/04/19 05:53:59;;;;;;;16.67;14.73;;;12.00;39.50;;;;;;2616601;54;20423;-81
2022/04/19 05:56:26;;;;;;;18.80;14.20;;;12.40;34.10;;;;;;2615347;54;20411;-81
2022/04/19 05:58:53;;;;;;;19.10;14.57;;;12.70;29.70;;;;;;2616321;54;20470;-81
2022/04/19 06:01:19;;;;;;;15.37;13.83;;;12.60;26.20;;;;;;2615713;47;20412;-81
2022/04/19 06:06:31;;;;;;;19.50;16.43;;;12.70;26.00;;;;;;2615455;54;20415;-82
2022/04/19 06:08:57;;;;;;;21.70;15.20;;;12.60;25.90;;;;;;2615689;46;20431;-82
2022/04/19 06:11:22;;;;;;;15.87;14.03;;;12.90;24.60;;;;;;2615047;47;20178;-81
2022/04/19 06:13:48;;;;;;;15.17;13.50;;;13.30;22.10;;;;;;2615106;47;20574;-79
2022/04/19 06:16:15;;;;;;;18.73;15.50;;;13.80;17.80;;;;;;2615689;47;20655;-82
2022/04/19 06:18:46;;;;;;;20.07;14.97;;;13.70;15.60;;;;;;2615401;47;20963;-80
2022/04/19 06:21:15;;;;;;;15.33;13.13;;;13.80;14.10;;;;;;2615275;39;20854;-81
2022/04/19 06:23:42;;;;;;;18.87;15.10;;;13.90;10.90;;;;;;2614641;46;20487;-82
2022/04/19 06:26:07;;;;;;;19.77;14.27;;;14.00;8.40;;;;;;2614893;54;20429;-80
2022/04/19 06:28:34;;;;;;;16.37;14.70;;;14.10;6.60;;;;;;2614658;54;20251;-80
2022/04/19 06:31:29;;;;;;;17.87;15.50;;;14.20;4.70;;;;;;2614024;47;20435;-82
2022/04/19 06:34:05;;;;;;;15.73;13.60;;;14.60;2.40;;;;;;2614328;47;20427;-82
2022/04/19 06:36:51;;;;;;;16.97;14.60;;;14.70;1.20;;;;;;2614208;54;20460;-80
2022/04/19 06:39:17;;;;;;;16.77;14.03;;;14.80;1.00;;;;;;2614072;47;21098;-81
2022/04/19 06:41:43;;;;;;;16.60;13.67;;;14.90;1.00;;;;;;2614218;54;20412;-80
2022/04/19 06:44:10;;;;;;;14.93;12.57;;;15.20;1.00;;;;;;2614947;47;20504;-81
2022/04/19 06:46:38;;;;;;;14.87;12.93;;;15.40;1.00;;;;;;2613805;47;21028;-81
2022/04/19 06:49:07;;;;;;;13.43;11.93;;;15.40;1.00;;;;;;2614666;54;20939;-81
2022/04/19 06:51:33;;;;;;;13.87;12.00;;;15.50;1.00;;;;;;2615251;54;20394;-82
2022/04/19 06:54:01;;;;;;;14.93;12.00;;;15.70;1.00;;;;;;2614272;39;20788;-81
2022/04/19 06:56:42;;;;;;;14.30;11.60;;;15.90;1.00;;;;;;2614359;46;20572;-82
2022/04/19 06:59:08;;;;;;;12.97;11.70;;;16.10;1.00;;;;;;2614396;54;20536;-81
2022/04/19 07:01:38;;;;;;;12.30;11.00;;;16.00;1.00;;;;;;2614874;31;20972;-82
2022/04/19 07:04:37;;;;;;;13.53;12.20;;;16.10;1.00;;;;;;2613583;47;20432;-81
2022/04/19 07:07:06;;;;;;;14.20;11.90;;;16.20;1.00;;;;;;2614902;46;20453;-82
2022/04/19 07:09:32;;;;;;;14.97;12.07;;;16.40;1.00;;;;;;2614182;39;20897;-81
2022/04/19 07:11:59;;;;;;;12.97;10.83;;;16.70;1.00;;;;;;2614349;54;20453;-82
2022/04/19 07:14:29;;;;;;;12.50;11.17;;;17.00;1.00;;;;;;2614132;39;20821;-81
2022/04/19 07:16:58;;;;;;;11.53;10.37;;;17.20;1.00;;;;;;2614937;54;20442;-82
2022/04/19 07:26:37;;;;;;;11.90;10.73;;;17.00;1.00;;;;;;2615151;47;20453;-83
2022/04/19 07:27:47;;;;;;;14.13;12.17;;;17.40;1.00;;;;;;2615311;47;20431;-82
2022/04/19 07:30:17;;;;;;;11.60;10.53;;;17.60;1.00;;;;;;2614814;47;20476;-81
2022/04/19 07:32:43;;;;;;;11.63;10.43;;;18.00;1.00;;;;;;2614867;54;20772;-82
2022/04/19 07:35:24;;;;;;;11.90;10.27;;;17.90;1.00;;;;;;2614878;47;20441;-82
2022/04/19 07:37:51;;;;;;;11.27;10.10;;;17.70;1.00;;;;;;2615061;47;20458;-81
2022/04/19 07:40:19;;;;;;;13.20;11.00;;;17.80;1.00;;;;;;2616089;39;20754;-81
2022/04/19 07:42:46;;;;;;;11.20;10.20;;;17.80;1.00;;;;;;2616768;54;20501;-82
2022/04/19 07:45:12;;;;;;;14.70;12.27;;;18.00;1.00;;;;;;2617391;39;20818;-82
2022/04/19 07:47:38;;;;;;;11.67;10.60;;;18.00;1.00;;;;;;2648623;36;20203;-82
2022/04/19 07:50:05;;;;;;;15.10;11.57;;;18.10;1.00;;;;;;2616478;47;20165;-82
2022/04/19 07:52:31;;;;;;;13.90;10.13;;;18.10;1.00;;;;;;2616200;39;22453;-81
2022/04/19 07:54:57;;;;;;;13.67;12.37;;;18.20;1.00;;;;;;2616718;54;20547;-81
2022/04/19 07:57:23;;;;;;;12.00;10.87;;;18.20;1.00;;;;;;2616507;47;20169;-82
2022/04/19 07:59:54;;;;;;;16.13;12.60;;;18.20;1.00;;;;;;2616546;47;20487;-83
2022/04/19 08:02:23;;;;;;;11.83;10.50;;;18.30;1.00;;;;;;2617057;47;20410;-83
2022/04/19 08:04:49;;;;;;;11.97;10.50;;;18.60;1.00;;;;;;2616811;54;21265;-83
2022/04/19 08:07:14;;;;;;;11.27;10.23;;;18.90;1.00;;;;;;2616723;47;20955;-83
2022/04/19 08:09:41;;;;;;;13.97;12.07;;;19.10;1.00;;;;;;2617000;47;20262;-82
2022/04/19 08:12:08;;;;;;;13.50;11.37;;;19.10;1.00;;;;;;2617096;47;20180;-81
2022/04/19 08:14:35;;;;;;;11.07;9.97;;;19.20;1.00;;;;;;2617145;54;20431;-83
2022/04/19 08:17:02;;;;;;;12.17;11.07;;;19.10;1.00;;;;;;2617370;54;20486;-83
2022/04/19 08:19:28;;;;;;;12.90;11.10;;;18.90;1.00;;;;;;2616997;47;20459;-81
2022/04/19 08:21:56;;;;;;;11.67;10.67;;;19.00;1.00;;;;;;2618042;46;21019;-82
2022/04/19 08:24:23;;;;;;;12.67;11.40;;;18.90;1.00;;;;;;2618491;39;20590;-82
2022/04/19 08:26:49;;;;;;;11.67;10.50;;;18.90;1.00;;;;;;2617234;47;20458;-83
2022/04/19 08:29:15;;;;;;;12.20;11.00;;;18.90;1.00;;;;;;2617078;47;20449;-83
2022/04/19 08:31:41;;;;;;;11.60;10.60;;;19.00;1.00;;;;;;2617671;46;20173;-82
2022/04/19 08:34:08;;;;;;;11.10;9.90;;;19.20;1.00;;;;;;2618011;47;20428;-84
2022/04/19 08:36:34;;;;;;;11.90;10.90;;;19.30;1.00;;;;;;2617636;46;20417;-84
2022/04/19 08:39:01;;;;;;;11.60;10.50;;;19.40;1.00;;;;;;2617842;47;20442;-82
2022/04/19 08:41:27;;;;;;;12.90;9.20;;;19.50;1.00;;;;;;2617676;47;20431;-83
2022/04/19 08:43:54;;;;;;;11.57;10.57;;;19.70;1.00;;;;;;2618228;47;20402;-83
2022/04/19 08:46:20;;;;;;;10.80;9.87;;;19.70;1.00;;;;;;2618088;47;20883;-81
2022/04/19 08:48:47;;;;;;;10.80;9.80;;;19.70;1.00;;;;;;2617683;47;20418;-81
2022/04/19 08:51:18;;;;;;;10.10;9.20;;;20.00;1.00;;;;;;2617864;54;20150;-81
2022/04/19 08:59:14;;;;;;;9.20;8.50;;;20.50;1.00;;;;;;2617970;46;20404;-83
2022/04/19 09:01:41;;;;;;;10.90;9.83;;;20.70;1.00;;;;;;2617787;47;20433;-82
2022/04/19 09:04:07;;;;;;;10.67;9.53;;;20.70;1.00;;;;;;2617572;54;20402;-81
2022/04/19 09:06:55;;;;;;;9.40;8.57;;;20.80;1.00;;;;;;2618760;39;20803;-82
2022/04/19 09:09:26;;;;;;;9.07;8.20;;;20.70;1.00;;;;;;2617974;54;20963;-84
2022/04/19 09:11:55;;;;;;;9.87;8.90;;;20.70;1.00;;;;;;2617891;47;20400;-82
2022/04/19 09:14:23;;;;;;;7.67;6.97;;;20.60;1.00;;;;;;2617770;54;20403;-83
2022/04/19 09:17:08;;;;;;;8.90;8.20;;;20.60;1.00;;;;;;2617982;46;20467;-85
2022/04/19 09:19:34;;;;;;;8.90;8.20;;;20.70;1.00;;;;;;2617739;47;20491;-83
2022/04/19 09:22:00;;;;;;;8.30;7.50;;;21.00;1.00;;;;;;2618091;54;20426;-83
2022/04/19 09:24:27;;;;;;;12.10;7.40;;;21.00;1.00;;;;;;2617811;47;20967;-83
2022/04/19 09:26:53;;;;;;;7.97;7.27;;;21.10;1.00;;;;;;2617560;54;20387;-83
2022/04/19 09:29:21;;;;;;;8.23;7.33;;;20.90;1.00;;;;;;2617548;47;20436;-82
2022/04/19 09:31:50;;;;;;;8.10;7.30;;;20.70;1.00;;;;;;2616992;47;20935;-82
2022/04/19 09:34:30;;;;;;;6.80;6.30;;;20.80;1.00;;;;;;2618024;54;20403;-83
2022/04/19 09:37:10;;;;;;;7.27;6.53;;;20.90;1.00;;;;;;2617317;47;20411;-83
2022/04/19 09:39:40;;;;;;;6.30;5.80;;;20.70;1.00;;;;;;2617083;46;21097;-82
2022/04/19 09:42:14;;;;;;;7.03;6.20;;;20.80;1.00;;;;;;2617714;54;20974;-84
2022/04/19 09:44:49;;;;;;;7.43;6.83;;;20.80;1.00;;;;;;2618285;54;20892;-83
2022/04/19 09:47:15;;;;;;;8.37;7.67;;;20.90;1.00;;;;;;2619096;39;20831;-82
2022/04/19 09:49:42;;;;;;;7.33;6.70;;;21.00;1.00;;;;;;2618361;47;20404;-82
2022/04/19 09:52:33;;;;;;;6.77;6.33;;;21.10;1.00;;;;;;2618889;47;20982;-84
2022/04/19 09:55:10;;;;;;;8.40;7.03;;;21.00;1.00;;;;;;2618871;47;20431;-81
2022/04/19 09:57:39;;;;;;;7.57;6.97;;;21.10;1.00;;;;;;2619240;54;20399;-84
2022/04/19 10:00:12;;;;;;;7.53;6.90;;;21.30;1.00;;;;;;2618968;46;20425;-81
2022/04/19 10:08:22;;;;;;;7.73;7.20;;;21.70;1.00;;;;;;2619350;51;20453;-84
2022/04/19 10:10:49;;;;;;;8.43;7.63;;;22.20;1.00;;;;;;2619502;54;20411;-82
2022/04/19 10:13:17;;;;;;;8.73;8.03;;;22.20;1.00;;;;;;2618848;47;20936;-79
2022/04/19 10:15:44;;;;;;;8.37;7.47;;;22.10;1.00;;;;;;2618899;54;20499;-81
2022/04/19 10:18:12;;;;;;;8.30;7.50;;;22.20;1.00;;;;;;2619360;54;20423;-81
2022/04/19 10:20:58;;;;;;;8.20;7.40;;;22.30;1.00;;;;;;2618949;47;20454;-82
2022/04/19 10:23:42;;;;;;;8.23;7.40;;;21.90;1.00;;;;;;2618683;47;20974;-81
2022/04/19 10:26:23;;;;;;;8.87;7.93;;;21.80;1.00;;;;;;2619337;47;20400;-81
2022/04/19 10:28:54;;;;;;;7.20;6.60;;;21.80;1.00;;;;;;2619320;54;20396;-84
2022/04/19 10:31:34;;;;;;;8.10;7.40;;;22.00;1.00;;;;;;2618687;47;20415;-81
2022/04/19 10:34:02;;;;;;;8.67;7.90;;;22.30;1.00;;;;;;2619021;47;20977;-83
2022/04/19 10:36:37;;;;;;;9.63;8.70;;;22.30;1.00;;;;;;2619183;54;20512;-84
2022/04/19 10:39:15;;;;;;;9.47;8.57;;;22.70;1.00;;;;;;2619202;46;20442;-82
2022/04/19 10:42:05;;;;;;;11.93;7.27;;;23.10;1.00;;;;;;2619107;47;20388;-81
2022/04/19 10:44:38;;;;;;;8.60;7.90;;;23.10;1.00;;;;;;2619407;54;20400;-82
2022/04/19 10:47:18;;;;;;;8.53;7.67;;;22.90;1.00;;;;;;2619308;47;20980;-84
2022/04/19 10:50:03;;;;;;;9.83;8.93;;;22.60;1.00;;;;;;2618756;54;20404;-80
2022/04/19 10:52:43;;;;;;;9.00;8.10;;;22.80;1.00;;;;;;2619376;47;20411;-81
2022/04/19 10:55:10;;;;;;;11.53;9.30;;;22.90;1.00;;;;;;2620027;54;20483;-81
2022/04/19 11:00:41;;;;;;;10.07;9.13;;;22.60;1.00;;;;;;2618127;47;20424;-83
2022/04/19 11:03:14;;;;;;;9.67;8.83;;;22.90;1.00;;;;;;2618572;54;20411;-83
2022/04/19 11:05:53;;;;;;;9.57;8.70;;;23.10;1.00;;;;;;2617927;54;20159;-82
2022/04/19 11:08:25;;;;;;;9.50;8.60;;;22.90;1.00;;;;;;2617317;54;20393;-83
2022/04/19 11:10:52;;;;;;;12.53;9.00;;;22.70;1.00;;;;;;2617902;47;20399;-83
2022/04/19 11:13:31;;;;;;;9.63;8.80;;;22.70;1.00;;;;;;2617148;47;20407;-82
2022/04/19 11:16:01;;;;;;;9.30;8.50;;;23.20;1.00;;;;;;2617671;54;20404;-83
2022/04/19 11:18:34;;;;;;;10.40;9.40;;;23.00;1.00;;;;;;2618442;54;20440;-82
2022/04/19 11:21:03;;;;;;;10.77;9.67;;;23.00;1.00;;;;;;2617825;47;20411;-82
2022/04/19 11:23:51;;;;;;;9.80;8.37;;;23.20;1.00;;;;;;2617262;54;20412;-80
2022/04/19 11:26:42;;;;;;;9.93;9.10;;;22.90;1.00;;;;;;2617705;47;20449;-82
2022/04/19 11:29:11;;;;;;;9.83;8.93;;;22.70;1.00;;;;;;2618372;47;20449;-83
2022/04/19 11:31:56;;;;;;;12.23;9.10;;;22.40;1.00;;;;;;2618152;54;20408;-83
2022/04/19 11:34:23;;;;;;;8.70;7.90;;;22.50;1.00;;;;;;2619098;39;20811;-83
2022/04/19 11:36:49;;;;;;;8.60;7.70;;;22.50;1.00;;;;;;2617283;47;20406;-85
2022/04/19 11:47:59;;;;;;;9.43;8.50;;;23.20;1.00;;;;;;2616737;47;20403;-83
2022/04/19 11:50:33;;;;;;;8.70;7.97;;;23.30;1.00;;;;;;2616474;54;20900;-84
2022/04/19 11:52:59;;;;;;;11.07;10.07;;;23.40;1.00;;;;;;2616592;47;20403;-84
2022/04/19 11:55:27;;;;;;;9.00;8.20;;;23.40;1.00;;;;;;2616217;47;20498;-83
2022/04/19 11:58:09;;;;;;;10.10;8.73;;;23.40;1.00;;;;;;2616833;47;20425;-82
2022/04/19 12:00:36;;;;;;;8.70;7.90;;;23.40;1.00;;;;;;2616809;47;20424;-84
2022/04/19 12:03:22;;;;;;;9.83;8.93;;;23.00;1.00;;;;;;2616999;47;20408;-83
2022/04/19 12:05:48;;;;;;;10.03;9.13;;;22.90;1.00;;;;;;2616712;47;20425;-83
2022/04/19 12:08:30;;;;;;;9.13;8.43;;;23.00;1.00;;;;;;2616622;47;20431;-82
2022/04/19 12:10:58;;;;;;;10.20;9.10;;;23.00;1.00;;;;;;2616966;54;20395;-83
2022/04/19 12:13:26;;;;;;;8.50;7.70;;;22.80;1.00;;;;;;2617376;39;23087;-84
2022/04/19 12:15:51;;;;;;;8.30;7.60;;;22.70;1.00;;;;;;2616213;47;21030;-83
2022/04/19 12:18:33;;;;;;;8.00;6.50;;;22.80;1.00;;;;;;2616337;54;20420;-82
2022/04/19 12:20:59;;;;;;;8.73;7.93;;;22.80;1.00;;;;;;2616543;54;20261;-82
2022/04/19 12:23:25;;;;;;;7.90;7.20;;;22.80;1.00;;;;;;2616713;39;20548;-83
2022/04/19 12:26:01;;;;;;;7.73;7.23;;;22.80;1.00;;;;;;2616653;54;20430;-82
2022/04/19 12:28:41;;;;;;;8.37;7.63;;;23.00;1.00;;;;;;2616399;47;20421;-81
2022/04/19 12:31:08;;;;;;;9.53;7.77;;;23.30;1.00;;;;;;2616458;54;20419;-82
2022/04/19 12:33:52;;;;;;;8.30;7.60;;;23.00;1.00;;;;;;2615360;54;20396;-81
2022/04/19 12:36:25;;;;;;;8.77;8.17;;;23.10;1.00;;;;;;2616855;39;20549;-82
2022/04/19 12:39:02;;;;;;;7.77;7.17;;;23.40;1.00;;;;;;2616210;54;20447;-83
2022/04/19 12:41:40;;;;;;;7.43;6.90;;;23.40;1.00;;;;;;2616424;47;20462;-82
2022/04/19 12:44:08;;;;;;;8.17;7.67;;;23.00;1.00;;;;;;2615058;54;20400;-84
2022/04/19 12:46:48;;;;;;;8.63;7.93;;;23.10;1.00;;;;;;2616674;51;20459;-84
2022/04/19 12:49:29;;;;;;;7.70;7.10;;;22.90;1.00;;;;;;2616863;54;20462;-83
2022/04/19 12:52:05;;;;;;;8.27;7.67;;;22.70;1.00;;;;;;2615814;47;21015;-82
2022/04/19 12:54:33;;;;;;;7.90;7.23;;;22.90;1.00;;;;;;2616515;54;20410;-82
2022/04/19 12:57:01;;;;;;;8.43;7.73;;;22.80;1.00;;;;;;2617223;54;20432;-82
2022/04/19 12:59:32;;;;;;;7.93;7.33;;;22.90;1.00;;;;;;2617427;47;20963;-82
2022/04/19 13:02:00;;;;;;;8.80;8.10;;;22.90;1.00;;;;;;2617533;46;20455;-83
2022/04/19 13:04:26;;;;;;;7.73;7.23;;;23.20;1.00;;;;;;2617638;39;20781;-81
2022/04/19 13:12:26;;;;;;;9.20;8.30;;;22.90;1.00;;;;;;2617518;54;20398;-83
2022/04/19 13:14:54;;;;;;;9.53;8.73;;;23.20;1.00;;;;;;2617726;47;20991;-83
2022/04/19 13:17:23;;;;;;;8.50;7.90;;;22.60;1.00;;;;;;2617784;47;20605;-83
2022/04/19 13:19:49;;;;;;;8.73;8.03;;;22.70;1.00;;;;;;2617423;47;20978;-82
2022/04/19 13:22:15;;;;;;;8.90;8.20;;;22.90;1.00;;;;;;2617107;47;20414;-83
2022/04/19 13:24:43;;;;;;;10.50;8.97;;;23.10;1.00;;;;;;2617022;54;20197;-83
2022/04/19 13:27:11;;;;;;;8.23;7.53;;;22.90;1.00;;;;;;2615856;54;20388;-82
2022/04/19 13:29:39;;;;;;;9.37;8.77;;;22.60;1.00;;;;;;2616764;54;20539;-82
2022/04/19 13:32:06;;;;;;;9.17;8.37;;;22.60;1.00;;;;;;2617078;47;20423;-83
2022/04/19 13:34:32;;;;;;;9.67;8.97;;;22.50;1.00;;;;;;2617426;39;20778;-83
2022/04/19 13:36:59;;;;;;;8.13;7.43;;;22.40;1.00;;;;;;2617216;39;20760;-83
2022/04/19 13:39:27;;;;;;;8.87;7.80;;;22.70;1.00;;;;;;2616467;47;20481;-82
2022/04/19 13:41:53;;;;;;;7.93;7.43;;;22.90;1.00;;;;;;2616706;51;20408;-85
2022/04/19 13:44:19;;;;;;;9.13;8.43;;;22.90;1.00;;;;;;2616919;47;20463;-83
2022/04/19 13:46:48;;;;;;;8.73;7.90;;;22.80;1.00;;;;;;2618035;39;21243;-83